Time;durP1;ratioP1;P1;durP2;ratioP2;P2;SDS_P1;SDS_P2;PMS_P1;PMS_P2;Temp;Humidity;BMP_temperature;BMP_pressure;BME280_temperature;BME280_humidity;BME280_pressure;Samples;Min_cycle;Max_cycle;Signal;HPM_P1;HPM_P2
2023/05/20 00:01:12;;;;;;;4.53;1.30;;;;;;;9.20;100.00;102269.69;7395309;19;20408;-37
2023/05/20 00:03:42;;;;;;;5.80;1.73;;;;;;;9.21;100.00;102266.31;7391024;19;20404;-38
2023/05/20 00:06:12;;;;;;;3.70;1.10;;;;;;;9.19;100.00;102262.75;7391786;19;20442;-38
2023/05/20 00:08:41;;;;;;;4.47;1.27;;;;;;;9.18;100.00;102264.41;7389467;19;20380;-39
2023/05/20 00:11:13;;;;;;;5.37;1.50;;;;;;;9.19;100.00;102263.63;7394408;19;20487;-39
2023/05/20 00:13:43;;;;;;;4.07;1.10;;;;;;;9.15;100.00;102260.72;7391269;19;20420;-38
2023/05/20 00:16:13;;;;;;;10.73;2.10;;;;;;;9.13;100.00;102272.63;7391261;19;20773;-39
2023/05/20 00:18:42;;;;;;;15.17;5.40;;;;;;;9.14;100.00;102274.41;7390302;19;20407;-36
2023/05/20 00:21:12;;;;;;;7.40;2.63;;;;;;;9.08;100.00;102271.38;7391797;19;20985;-39
2023/05/20 00:23:42;;;;;;;9.40;3.43;;;;;;;9.06;100.00;102268.69;7389345;19;20392;-38
2023/05/20 00:26:14;;;;;;;6.90;2.80;;;;;;;9.09;100.00;102256.03;7391354;19;20432;-40
2023/05/20 00:28:44;;;;;;;4.40;1.20;;;;;;;9.08;100.00;102253.34;7392337;19;20750;-40
2023/05/20 00:31:13;;;;;;;4.53;1.60;;;;;;;9.05;100.00;102254.94;7391905;19;20424;-39
2023/05/20 00:33:43;;;;;;;11.50;1.50;;;;;;;9.00;100.00;102239.91;7389503;19;20393;-38
2023/05/20 00:36:12;;;;;;;3.80;1.10;;;;;;;8.99;100.00;102222.69;7390492;19;20966;-38
2023/05/20 00:38:42;;;;;;;4.50;1.07;;;;;;;9.01;100.00;102203.09;7389402;19;20404;-39
2023/05/20 00:41:14;;;;;;;4.40;1.60;;;;;;;9.02;100.00;102187.75;7392094;19;20404;-38
2023/05/20 00:43:44;;;;;;;5.87;1.70;;;;;;;8.99;100.00;102172.13;7391243;19;20471;-39
2023/05/20 00:46:14;;;;;;;10.93;4.10;;;;;;;8.98;100.00;102147.13;7390678;19;20981;-41
2023/05/20 00:48:45;;;;;;;4.03;1.30;;;;;;;8.98;100.00;102149.69;7385613;19;20462;-37
2023/05/20 00:51:15;;;;;;;4.03;1.40;;;;;;;8.94;100.00;102131.38;7389008;19;20394;-38
2023/05/20 00:53:45;;;;;;;4.63;1.30;;;;;;;8.96;100.00;102112.66;7389132;19;20796;-39
2023/05/20 00:56:17;;;;;;;6.33;1.20;;;;;;;8.93;100.00;102099.59;7391587;19;20429;-40
2023/05/20 00:58:47;;;;;;;4.40;1.30;;;;;;;8.95;100.00;102086.81;7390921;19;20979;-38
2023/05/20 01:01:16;;;;;;;5.30;1.57;;;;;;;8.95;100.00;102067.13;7392195;19;20815;-38
2023/05/20 01:03:47;;;;;;;6.97;1.70;;;;;;;8.91;100.00;102059.97;7385849;19;20459;-38
2023/05/20 01:06:17;;;;;;;5.70;1.23;;;;;;;8.87;100.00;102040.84;7387586;19;20479;-39
2023/05/20 01:08:46;;;;;;;9.03;3.20;;;;;;;8.92;100.00;102046.31;7385324;19;20414;-37
2023/05/20 01:11:22;;;;;;;3.10;1.20;;;;;;;8.85;100.00;102039.84;7390520;19;20927;-39
2023/05/20 01:13:56;;;;;;;6.60;1.40;;;;;;;8.86;100.00;102041.63;7386061;19;20922;-38
2023/05/20 01:16:26;;;;;;;3.93;1.33;;;;;;;8.88;100.00;102041.75;7387790;19;20443;-37
2023/05/20 01:18:57;;;;;;;5.30;1.90;;;;;;;8.77;100.00;102034.16;7386445;19;20398;-37
2023/05/20 01:21:28;;;;;;;4.90;1.60;;;;;;;8.77;100.00;102033.28;7391579;19;21059;-38
2023/05/20 01:24:00;;;;;;;9.27;1.40;;;;;;;8.76;100.00;102034.97;7387173;19;20464;-38
2023/05/20 01:26:30;;;;;;;5.43;1.50;;;;;;;8.69;100.00;102053.34;7388769;19;20465;-39
2023/05/20 01:29:03;;;;;;;6.37;1.63;;;;;;;8.68;100.00;102055.78;7386531;19;20439;-39
2023/05/20 01:31:35;;;;;;;4.80;1.50;;;;;;;8.70;100.00;102056.78;7388379;19;20401;-38
2023/05/20 01:34:06;;;;;;;3.50;1.43;;;;;;;8.68;100.00;102060.94;7388332;19;20771;-38
2023/05/20 01:36:35;;;;;;;4.27;1.73;;;;;;;8.59;100.00;102066.31;7388443;19;20442;-38
2023/05/20 01:39:08;;;;;;;4.30;1.70;;;;;;;8.56;100.00;102071.28;7385892;19;20420;-38
2023/05/20 01:41:38;;;;;;;3.60;1.10;;;;;;;8.53;100.00;102091.63;7388993;19;20407;-38
2023/05/20 01:44:08;;;;;;;5.30;1.63;;;;;;;8.51;100.00;102094.97;7384351;19;20424;-38
2023/05/20 01:46:38;;;;;;;5.40;1.73;;;;;;;8.43;100.00;102097.75;7393097;19;20439;-38
2023/05/20 01:49:08;;;;;;;7.57;2.83;;;;;;;8.42;100.00;102109.72;7386525;19;21077;-38
2023/05/20 01:51:37;;;;;;;6.10;1.60;;;;;;;8.37;100.00;102116.22;7388874;19;20407;-40
2023/05/20 01:54:10;;;;;;;6.63;1.97;;;;;;;8.35;100.00;102133.19;7386309;19;20494;-38
2023/05/20 01:56:39;;;;;;;4.43;1.70;;;;;;;8.30;100.00;102147.41;7388654;19;20440;-39
2023/05/20 01:59:09;;;;;;;5.43;1.40;;;;;;;8.29;100.00;102166.16;7387806;19;20428;-38
2023/05/20 02:01:38;;;;;;;6.97;1.70;;;;;;;8.30;100.00;102170.56;7388424;19;20402;-41
2023/05/20 02:04:08;;;;;;;3.53;1.37;;;;;;;8.24;100.00;102186.41;7388199;19;20408;-39
2023/05/20 02:06:37;;;;;;;5.17;1.40;;;;;;;8.22;100.00;102239.41;7387569;19;20502;-38
2023/05/20 02:09:10;;;;;;;8.67;2.50;;;;;;;8.21;100.00;102266.78;7385173;19;20753;-39
2023/05/20 02:11:39;;;;;;;7.50;2.13;;;;;;;8.26;100.00;102277.44;7389067;19;20384;-38
2023/05/20 02:14:09;;;;;;;11.93;3.10;;;;;;;8.29;100.00;102302.47;7386470;19;20415;-38
2023/05/20 02:16:39;;;;;;;4.13;1.60;;;;;;;8.22;100.00;102309.72;7388444;19;20511;-38
2023/05/20 02:19:11;;;;;;;4.40;1.73;;;;;;;8.17;100.00;102318.78;7387650;19;20444;-38
2023/05/20 02:21:42;;;;;;;4.37;1.80;;;;;;;8.17;100.00;102353.88;7388706;19;20408;-39
2023/05/20 02:24:15;;;;;;;4.40;1.40;;;;;;;8.16;100.00;102378.66;7385362;19;20425;-40
2023/05/20 02:26:45;;;;;;;5.60;2.00;;;;;;;8.14;100.00;102394.78;7388233;19;20419;-38
2023/05/20 02:29:15;;;;;;;4.67;2.10;;;;;;;8.18;100.00;102407.06;7383928;19;20479;-40
2023/05/20 02:31:44;;;;;;;6.60;1.70;;;;;;;8.11;100.00;102426.28;7390460;19;20446;-38
2023/05/20 02:34:14;;;;;;;6.47;1.60;;;;;;;8.12;100.00;102443.50;7389280;19;20419;-37
2023/05/20 02:36:44;;;;;;;6.63;2.90;;;;;;;8.11;100.00;102467.41;7388474;19;20423;-37
2023/05/20 02:39:17;;;;;;;6.60;1.90;;;;;;;8.05;100.00;102483.25;7385594;19;20444;-39
2023/05/20 02:41:46;;;;;;;9.53;3.40;;;;;;;8.02;100.00;102507.81;7389000;19;20392;-38
2023/05/20 02:44:16;;;;;;;9.03;3.07;;;;;;;8.01;100.00;102521.44;7385011;19;20934;-38
2023/05/20 02:46:46;;;;;;;9.80;2.70;;;;;;;7.96;100.00;102532.25;7387783;19;20423;-39
2023/05/20 02:49:16;;;;;;;6.13;2.40;;;;;;;7.99;100.00;102548.72;7386181;19;20466;-39
2023/05/20 02:51:45;;;;;;;6.50;2.50;;;;;;;7.96;100.00;102547.66;7387538;19;20395;-39
2023/05/20 02:54:18;;;;;;;3.40;1.40;;;;;;;7.97;100.00;102557.19;7383930;19;20422;-38
2023/05/20 02:56:47;;;;;;;5.33;1.93;;;;;;;7.95;100.00;102551.00;7386894;19;20644;-38
2023/05/20 02:59:17;;;;;;;4.50;1.70;;;;;;;7.95;100.00;102561.28;7384701;19;20411;-38
2023/05/20 03:01:46;;;;;;;4.53;1.60;;;;;;;7.94;100.00;102587.78;7388887;19;20402;-38
2023/05/20 03:04:17;;;;;;;5.60;2.07;;;;;;;7.92;100.00;102602.19;7384221;19;20419;-38
2023/05/20 03:06:48;;;;;;;3.90;1.60;;;;;;;7.90;100.00;102616.56;7385682;19;20423;-39
2023/05/20 03:09:20;;;;;;;4.60;1.97;;;;;;;7.88;100.00;102633.53;7385101;19;20435;-37
2023/05/20 03:11:50;;;;;;;4.30;1.77;;;;;;;7.87;100.00;102652.31;7386831;19;20384;-39
2023/05/20 03:14:19;;;;;;;3.60;1.30;;;;;;;7.86;100.00;102668.50;7388524;19;20765;-37
2023/05/20 03:16:49;;;;;;;6.77;2.10;;;;;;;7.88;100.00;102681.44;7393198;19;20498;-37
2023/05/20 03:19:18;;;;;;;5.63;1.33;;;;;;;7.87;100.00;102696.00;7393405;19;20430;-39
2023/05/20 03:21:49;;;;;;;4.30;1.63;;;;;;;7.84;100.00;102717.19;7395931;19;20400;-37
2023/05/20 03:24:22;;;;;;;10.47;2.10;;;;;;;7.82;100.00;102725.53;7389374;19;20788;-38
2023/05/20 03:26:52;;;;;;;6.20;2.30;;;;;;;7.84;100.00;102754.84;7392507;19;20583;-39
2023/05/20 03:29:21;;;;;;;7.83;1.87;;;;;;;7.86;100.00;102753.31;7390136;19;20970;-37
2023/05/20 03:31:51;;;;;;;8.13;2.63;;;;;;;7.85;100.00;102759.22;7393221;19;20388;-40
2023/05/20 03:34:20;;;;;;;5.37;2.50;;;;;;;7.80;100.00;102761.38;7389803;19;21006;-39
2023/05/20 03:36:50;;;;;;;3.80;1.67;;;;;;;7.86;100.00;102771.31;7394319;19;20439;-38
2023/05/20 03:39:22;;;;;;;4.17;1.57;;;;;;;7.84;100.00;102777.97;7390011;19;20414;-38
2023/05/20 03:41:52;;;;;;;7.93;3.17;;;;;;;7.88;100.00;102772.31;7393103;19;20400;-38
2023/05/20 03:44:21;;;;;;;4.80;2.40;;;;;;;7.88;100.00;102772.31;7389370;19;20419;-38
2023/05/20 03:46:51;;;;;;;9.73;3.00;;;;;;;7.89;100.00;102774.13;7391901;19;20487;-37
2023/05/20 03:49:21;;;;;;;8.80;2.73;;;;;;;7.96;100.00;102776.44;7389568;19;20978;-39
2023/05/20 03:51:50;;;;;;;8.73;2.83;;;;;;;7.90;100.00;102781.06;7392036;19;20747;-38
2023/05/20 03:54:22;;;;;;;4.53;1.90;;;;;;;7.88;100.00;102782.59;7391991;19;20426;-39
2023/05/20 03:56:52;;;;;;;6.67;1.80;;;;;;;7.87;100.00;102797.88;7391513;19;20419;-38
2023/05/20 03:59:22;;;;;;;4.40;1.70;;;;;;;7.89;100.00;102794.69;7389342;19;20431;-37
2023/05/20 04:01:51;;;;;;;10.40;4.20;;;;;;;7.97;100.00;102801.41;7392580;19;20740;-39
2023/05/20 04:04:21;;;;;;;6.43;1.53;;;;;;;7.99;100.00;102806.66;7389874;19;20407;-38
2023/05/20 04:06:51;;;;;;;7.40;1.90;;;;;;;8.05;100.00;102811.44;7391514;19;20430;-39
2023/05/20 04:09:23;;;;;;;4.93;1.80;;;;;;;8.06;100.00;102816.69;7390672;19;20418;-37
2023/05/20 04:11:53;;;;;;;4.43;1.80;;;;;;;8.07;100.00;102821.06;7392583;19;20406;-39
2023/05/20 04:14:25;;;;;;;6.50;1.80;;;;;;;8.10;100.00;102820.41;7389226;19;20399;-40
2023/05/20 04:16:55;;;;;;;4.37;2.20;;;;;;;8.18;100.00;102827.13;7391892;19;20468;-37
2023/05/20 04:19:27;;;;;;;13.30;4.17;;;;;;;8.20;100.00;102825.56;7388901;19;20463;-38
2023/05/20 04:21:57;;;;;;;9.63;3.00;;;;;;;8.29;100.00;102829.69;7395095;19;20395;-38
2023/05/20 04:24:30;;;;;;;6.83;2.87;;;;;;;8.28;100.00;102833.03;7389554;19;20412;-38
2023/05/20 04:27:00;;;;;;;6.43;2.20;;;;;;;8.32;100.00;102827.38;7391339;19;20426;-38
2023/05/20 04:29:33;;;;;;;4.53;1.67;;;;;;;8.32;100.00;102827.38;7389228;19;20899;-38
2023/05/20 04:32:03;;;;;;;5.17;1.90;;;;;;;8.36;100.00;102826.88;7391757;19;20835;-37
2023/05/20 04:34:33;;;;;;;6.50;2.13;;;;;;;8.36;100.00;102820.03;7389118;19;21006;-40
2023/05/20 04:37:03;;;;;;;5.37;1.90;;;;;;;8.36;100.00;102819.16;7392052;19;20443;-37
2023/05/20 04:39:35;;;;;;;7.87;3.37;;;;;;;8.46;100.00;102824.28;7385610;19;20426;-38
2023/05/20 04:42:05;;;;;;;11.70;2.10;;;;;;;8.47;100.00;102817.47;7393587;19;20953;-38
2023/05/20 04:44:35;;;;;;;6.60;3.10;;;;;;;8.53;100.00;102820.59;7388266;19;20418;-37
2023/05/20 04:47:06;;;;;;;9.03;2.83;;;;;;;8.55;100.00;102823.31;7391083;19;20431;-41
2023/05/20 04:49:36;;;;;;;9.47;2.90;;;;;;;8.53;100.00;102811.97;7390057;19;21005;-39
2023/05/20 04:52:07;;;;;;;6.77;2.00;;;;;;;8.55;100.00;102811.31;7391343;19;20395;-38
2023/05/20 04:54:39;;;;;;;4.00;1.87;;;;;;;8.53;100.00;102812.88;7389503;19;20436;-39
2023/05/20 04:57:09;;;;;;;6.30;2.60;;;;;;;8.56;100.00;102812.25;7391050;19;20971;-39
2023/05/20 04:59:38;;;;;;;8.97;2.30;;;;;;;8.58;100.00;102811.59;7389251;19;20417;-38
2023/05/20 05:02:08;;;;;;;6.83;1.83;;;;;;;8.60;100.00;102812.63;7391108;19;20801;-38
2023/05/20 05:04:37;;;;;;;5.90;2.23;;;;;;;8.63;100.00;102809.41;7388373;19;20428;-39
2023/05/20 05:07:07;;;;;;;9.50;1.70;;;;;;;8.69;100.00;102804.75;7389314;19;20491;-40
2023/05/20 05:09:39;;;;;;;5.27;2.47;;;;;;;8.78;100.00;102810.63;7392000;19;20527;-38
2023/05/20 05:12:09;;;;;;;4.50;1.50;;;;;;;8.86;100.00;102803.56;7392588;19;21128;-38
2023/05/20 05:14:39;;;;;;;5.70;2.10;;;;;;;8.97;100.00;102812.16;7388404;19;20444;-40
2023/05/20 05:17:08;;;;;;;6.70;1.90;;;;;;;9.01;100.00;102810.72;7391450;19;20423;-38
2023/05/20 05:19:38;;;;;;;6.47;2.03;;;;;;;9.07;100.00;102808.63;7390222;19;20408;-38
2023/05/20 05:22:08;;;;;;;5.83;2.20;;;;;;;9.12;100.00;102802.19;7391234;19;20412;-40
2023/05/20 05:24:40;;;;;;;5.70;1.80;;;;;;;9.17;100.00;102810.28;7388450;19;20845;-39
2023/05/20 05:27:10;;;;;;;8.17;2.47;;;;;;;9.23;100.00;102805.63;7392443;19;20448;-39
2023/05/20 05:29:39;;;;;;;10.50;3.57;;;;;;;9.35;100.00;102815.09;7386285;19;20447;-38
2023/05/20 05:32:09;;;;;;;5.43;1.73;;;;;;;9.39;100.00;102817.16;7390117;19;20562;-38
2023/05/20 05:34:39;;;;;;;6.27;2.43;;;;;;;9.47;100.00;102810.94;7386931;19;20446;-38
2023/05/20 05:37:09;;;;;;;5.37;2.03;;;;;;;9.52;100.00;102814.78;7389019;19;20451;-38
2023/05/20 05:39:41;;;;;;;9.03;2.33;;;;;;;9.62;100.00;102821.56;7389178;19;20499;-40
2023/05/20 05:42:11;;;;;;;13.00;2.60;;;;;;;9.72;100.00;102818.94;7390490;19;20388;-38
2023/05/20 05:44:41;;;;;;;6.37;3.27;;;;;;;9.86;100.00;102822.56;7390593;19;20423;-38
2023/05/20 05:47:10;;;;;;;6.47;2.10;;;;;;;9.95;100.00;102822.38;7390249;19;20432;-40
2023/05/20 05:49:40;;;;;;;5.53;1.93;;;;;;;10.06;100.00;102814.59;7386940;19;20756;-39
2023/05/20 05:52:10;;;;;;;6.10;2.00;;;;;;;10.09;100.00;102815.72;7390205;19;20416;-38
2023/05/20 05:54:42;;;;;;;5.23;1.77;;;;;;;10.13;100.00;102807.44;7386621;19;20441;-38
2023/05/20 05:57:11;;;;;;;5.80;1.80;;;;;;;10.19;100.00;102801.84;7390040;19;20424;-38
2023/05/20 05:59:42;;;;;;;9.80;2.80;;;;;;;10.29;100.00;102805.13;7388877;19;20417;-40
2023/05/20 06:02:13;;;;;;;4.57;1.60;;;;;;;10.35;100.00;102795.25;7391033;19;20384;-38
2023/05/20 06:04:43;;;;;;;6.20;2.00;;;;;;;10.41;100.00;102795.69;7389188;19;20785;-38
2023/05/20 06:07:12;;;;;;;6.00;1.83;;;;;;;10.47;100.00;102787.56;7388724;19;20433;-41
2023/05/20 06:09:44;;;;;;;13.50;2.43;;;;;;;10.50;100.00;102769.72;7386646;19;20472;-37
2023/05/20 06:12:14;;;;;;;5.93;1.90;;;;;;;10.54;100.00;102748.53;7389595;19;20426;-39
2023/05/20 06:14:44;;;;;;;9.70;2.80;;;;;;;10.69;100.00;102734.94;7386312;19;20425;-37
2023/05/20 06:17:13;;;;;;;5.50;2.00;;;;;;;10.77;100.00;102736.41;7389246;19;20414;-40
2023/05/20 06:19:43;;;;;;;7.73;2.13;;;;;;;10.88;100.00;102726.84;7386342;19;20436;-38
2023/05/20 06:22:13;;;;;;;12.10;3.77;;;;;;;10.78;100.00;102707.22;7391140;19;20393;-38
2023/05/20 06:24:45;;;;;;;5.50;1.93;;;;;;;10.76;100.00;102685.53;7385274;19;20500;-41
2023/05/20 06:27:15;;;;;;;4.30;2.13;;;;;;;10.80;100.00;102672.06;7387567;19;20518;-38
2023/05/20 06:29:44;;;;;;;8.30;2.03;;;;;;;10.84;100.00;102653.44;7381391;19;20439;-39
2023/05/20 06:32:14;;;;;;;5.40;2.00;;;;;;;10.89;100.00;102639.16;7392566;19;20429;-38
2023/05/20 06:34:44;;;;;;;5.70;2.20;;;;;;;10.96;100.00;102618.94;7387690;19;20503;-38
2023/05/20 06:37:14;;;;;;;24.37;7.57;;;;;;;11.09;100.00;102613.84;7391604;19;20454;-38
2023/05/20 06:39:50;;;;;;;9.17;1.93;;;;;;;11.13;100.00;102607.19;7388781;19;20414;-39
2023/05/20 06:42:19;;;;;;;4.57;1.70;;;;;;;11.19;100.00;102580.06;7391361;19;20419;-39
2023/05/20 06:44:49;;;;;;;34.90;11.63;;;;;;;11.32;100.00;102581.81;7387560;19;20418;-38
2023/05/20 06:47:19;;;;;;;5.07;2.00;;;;;;;11.39;100.00;102558.97;7391384;19;20469;-38
2023/05/20 06:49:49;;;;;;;5.73;2.27;;;;;;;11.50;100.00;102510.56;7392874;19;20538;-40
2023/05/20 06:52:19;;;;;;;4.07;2.10;;;;;;;11.60;100.00;102479.38;7398435;19;20415;-40
2023/05/20 06:54:51;;;;;;;9.73;2.40;;;;;;;11.68;100.00;102452.31;7396008;19;20411;-38
2023/05/20 06:57:21;;;;;;;6.10;2.20;;;;;;;11.81;100.00;102419.47;7398260;19;20435;-38
2023/05/20 06:59:50;;;;;;;11.60;4.63;;;;;;;11.93;100.00;102388.31;7395570;19;20434;-38
2023/05/20 07:02:20;;;;;;;10.10;3.23;;;;;;;12.11;100.00;102373.09;7398386;19;20408;-38
2023/05/20 07:04:50;;;;;;;10.00;3.80;;;;;;;12.20;100.00;102360.69;7391699;19;20970;-38
2023/05/20 07:07:19;;;;;;;9.13;2.40;;;;;;;12.32;100.00;102332.09;7398094;19;20455;-40
2023/05/20 07:09:51;;;;;;;30.30;9.43;;;;;;;12.33;100.00;102289.88;7393807;19;20423;-37
2023/05/20 07:12:21;;;;;;;7.30;1.63;;;;;;;12.41;100.00;102277.41;7397351;19;20989;-38
2023/05/20 07:14:50;;;;;;;73.40;28.37;;;;;;;12.55;100.00;102268.72;7395993;19;20428;-39
2023/05/20 07:17:20;;;;;;;5.23;2.00;;;;;;;12.59;100.00;102237.81;7396867;19;20510;-39
2023/05/20 07:19:50;;;;;;;4.03;1.90;;;;;;;12.67;100.00;102221.03;7394471;19;20426;-39
2023/05/20 07:22:19;;;;;;;8.90;2.07;;;;;;;12.72;100.00;102204.03;7399670;19;20421;-39
2023/05/20 07:24:52;;;;;;;5.20;2.10;;;;;;;12.81;100.00;102186.44;7393852;19;21151;-39
2023/05/20 07:27:21;;;;;;;7.93;4.23;;;;;;;12.94;100.00;102177.66;7396277;19;20460;-38
2023/05/20 07:29:51;;;;;;;7.17;2.70;;;;;;;12.94;100.00;102133.63;7395732;19;20518;-38
2023/05/20 07:32:20;;;;;;;6.97;2.70;;;;;;;12.99;100.00;102096.69;7399498;19;20505;-38
2023/05/20 07:34:50;;;;;;;8.07;2.40;;;;;;;13.04;100.00;102061.56;7395334;19;20421;-39
2023/05/20 07:37:20;;;;;;;11.13;2.87;;;;;;;13.09;100.00;102058.38;7396850;19;20446;-39
2023/05/20 07:39:52;;;;;;;14.67;3.67;;;;;;;13.13;100.00;102038.72;7393707;19;20517;-38
2023/05/20 07:42:22;;;;;;;6.63;2.17;;;;;;;13.22;100.00;102040.88;7397460;19;20409;-38
2023/05/20 07:44:51;;;;;;;8.40;1.93;;;;;;;13.32;100.00;102012.03;7393163;19;20423;-38
2023/05/20 07:47:21;;;;;;;7.03;2.10;;;;;;;13.28;100.00;101989.38;7396817;19;20450;-39
2023/05/20 07:49:51;;;;;;;6.50;2.30;;;;;;;13.39;100.00;101991.63;7392573;19;20482;-40
2023/05/20 07:52:20;;;;;;;5.77;2.13;;;;;;;13.50;100.00;101996.53;7396797;19;20415;-39
2023/05/20 07:54:52;;;;;;;8.60;2.33;;;;;;;13.58;100.00;101981.38;7389870;19;20415;-39
2023/05/20 07:57:22;;;;;;;9.53;3.83;;;;;;;13.67;100.00;101967.06;7396359;19;20461;-40
2023/05/20 07:59:51;;;;;;;13.23;6.13;;;;;;;13.70;100.00;101962.03;7395016;19;20441;-37
2023/05/20 08:02:21;;;;;;;25.57;11.40;;;;;;;13.76;100.00;101957.16;7396895;19;20762;-38
2023/05/20 08:04:51;;;;;;;9.20;4.50;;;;;;;13.81;100.00;101954.78;7394002;19;20419;-38
2023/05/20 08:07:21;;;;;;;14.83;6.20;;;;;;;13.93;100.00;101960.53;7396418;19;20444;-38
2023/05/20 08:09:53;;;;;;;38.13;15.50;;;;;;;14.03;100.00;101965.34;7393286;19;20498;-37
2023/05/20 08:12:23;;;;;;;12.60;4.27;;;;;;;14.04;100.00;101958.44;7397809;19;20483;-38
2023/05/20 08:14:52;;;;;;;9.30;3.00;;;;;;;14.03;100.00;101951.47;7392283;19;20417;-39
2023/05/20 08:17:22;;;;;;;13.60;4.30;;;;;;;14.06;100.00;101962.03;7394895;19;20511;-39
2023/05/20 08:19:52;;;;;;;6.67;3.10;;;;;;;13.87;100.00;101950.78;7395635;19;20419;-38
2023/05/20 08:22:21;;;;;;;8.30;2.80;;;;;;;13.87;100.00;101958.56;7395645;19;20416;-38
2023/05/20 08:24:53;;;;;;;17.43;6.20;;;;;;;14.00;100.00;101944.44;7391346;19;20400;-38
2023/05/20 08:27:23;;;;;;;9.93;4.17;;;;;;;14.06;100.00;101942.94;7395119;19;20475;-38
2023/05/20 08:29:53;;;;;;;7.90;3.17;;;;;;;14.25;100.00;101953.34;7392987;19;20411;-38
2023/05/20 08:32:22;;;;;;;7.93;3.67;;;;;;;14.23;100.00;101980.06;7397313;19;20956;-39
2023/05/20 08:34:52;;;;;;;6.53;2.80;;;;;;;14.43;100.00;101973.19;7391512;19;20414;-38
2023/05/20 08:37:22;;;;;;;4.70;2.03;;;;;;;14.60;100.00;101980.88;7394282;19;20990;-39
2023/05/20 08:39:54;;;;;;;7.50;3.03;;;;;;;14.67;100.00;102004.56;7393032;19;20482;-39
2023/05/20 08:42:25;;;;;;;6.97;2.37;;;;;;;14.74;100.00;102025.63;7397307;19;20485;-38
2023/05/20 08:44:55;;;;;;;5.73;2.73;;;;;;;14.81;100.00;102041.59;7391517;19;20426;-38
2023/05/20 08:47:25;;;;;;;7.37;2.43;;;;;;;15.01;100.00;102064.97;7395402;19;20529;-38
2023/05/20 08:49:55;;;;;;;5.43;1.80;;;;;;;14.94;100.00;102130.47;7392463;19;20427;-39
2023/05/20 08:52:25;;;;;;;5.17;1.90;;;;;;;14.81;100.00;102161.09;7395414;19;20840;-38
2023/05/20 08:54:58;;;;;;;6.00;2.07;;;;;;;14.82;100.00;102159.41;7392257;19;20490;-37
2023/05/20 08:57:27;;;;;;;5.30;2.30;;;;;;;14.92;100.00;102160.72;7395342;19;20929;-36
2023/05/20 08:59:58;;;;;;;9.63;4.23;;;;;;;14.99;100.00;102170.56;7392363;19;20447;-38
2023/05/20 09:02:27;;;;;;;5.20;1.90;;;;;;;15.02;100.00;102172.41;7394830;19;20415;-38
2023/05/20 09:04:57;;;;;;;5.27;2.10;;;;;;;15.08;100.00;102170.09;7390632;19;21084;-39
2023/05/20 09:07:29;;;;;;;5.77;2.27;;;;;;;15.33;100.00;102169.47;7394755;19;21033;-40
2023/05/20 09:10:01;;;;;;;16.50;4.67;;;;;;;15.44;100.00;102216.75;7391140;19;20444;-37
2023/05/20 09:12:31;;;;;;;7.40;2.50;;;;;;;15.40;100.00;102209.66;7392881;19;20958;-40
2023/05/20 09:15:01;;;;;;;3.87;1.70;;;;;;;15.46;100.00;102222.94;7389551;19;20451;-38
2023/05/20 09:17:30;;;;;;;6.03;2.53;;;;;;;15.49;100.00;102243.00;7394087;19;20542;-38
2023/05/20 09:20:00;;;;;;;10.30;4.97;;;;;;;15.53;100.00;102235.41;7390394;19;20464;-38
2023/05/20 09:22:30;;;;;;;5.17;2.13;;;;;;;15.70;100.00;102237.88;7395764;19;20910;-37
2023/05/20 09:25:02;;;;;;;10.30;3.60;;;;;;;15.69;100.00;102262.06;7387539;19;20668;-38
2023/05/20 09:27:32;;;;;;;8.00;3.50;;;;;;;15.66;100.00;102256.75;7394473;19;20474;-38
2023/05/20 09:30:02;;;;;;;6.10;3.00;;;;;;;15.66;100.00;102252.44;7389782;19;20773;-38
2023/05/20 09:32:31;;;;;;;7.60;3.07;;;;;;;15.83;100.00;102249.69;7395116;19;20529;-39
2023/05/20 09:35:03;;;;;;;6.60;3.00;;;;;;;15.79;100.00;102251.28;7389492;19;20448;-38
2023/05/20 09:37:35;;;;;;;4.40;2.00;;;;;;;15.71;100.00;102255.25;7394920;19;20462;-38
2023/05/20 09:40:14;;;;;;;4.03;1.83;;;;;;;15.77;100.00;102255.53;7389717;19;20505;-37
2023/05/20 09:42:47;;;;;;;7.33;3.03;;;;;;;15.66;100.00;102255.03;7395722;19;21051;-39
2023/05/20 09:45:17;;;;;;;5.80;2.47;;;;;;;15.60;100.00;102238.28;7388775;19;20871;-37
2023/05/20 09:47:48;;;;;;;4.90;1.47;;;;;;;15.67;100.00;102258.53;7395462;19;20420;-39
2023/05/20 09:50:19;;;;;;;6.87;1.70;;;;;;;15.89;100.00;102260.38;7390808;19;20442;-38
2023/05/20 09:52:50;;;;;;;4.67;2.20;;;;;;;15.89;100.00;102234.34;7394508;19;20424;-39
2023/05/20 09:55:24;;;;;;;5.63;2.60;;;;;;;15.84;100.00;102237.59;7386792;19;20437;-39
2023/05/20 09:57:55;;;;;;;5.37;1.83;;;;;;;15.63;100.00;102247.09;7395458;19;20425;-39
2023/05/20 10:00:25;;;;;;;4.37;1.90;;;;;;;15.40;100.00;102248.66;7389144;19;20462;-38
2023/05/20 10:02:55;;;;;;;6.30;1.90;;;;;;;15.34;100.00;102243.19;7396126;19;20421;-38
2023/05/20 10:05:28;;;;;;;6.23;2.57;;;;;;;15.11;100.00;102214.41;7388200;19;20442;-38
2023/05/20 10:08:30;;;;;;;5.07;1.93;;;;;;;14.85;100.00;102175.13;7394950;19;20419;-40
2023/05/20 10:11:10;;;;;;;4.73;1.87;;;;;;;14.78;100.00;102145.38;7390537;19;20455;-40
2023/05/20 10:13:50;;;;;;;4.63;1.73;;;;;;;14.85;100.00;102126.66;7390728;19;20477;-38
2023/05/20 10:16:29;;;;;;;8.63;3.23;;;;;;;14.90;100.00;102131.16;7391927;19;20804;-39
2023/05/20 10:19:06;;;;;;;5.73;2.20;;;;;;;15.02;100.00;102131.72;7393029;19;20405;-38
2023/05/20 10:21:36;;;;;;;5.30;2.17;;;;;;;14.95;100.00;102145.25;7393291;19;20407;-37
2023/05/20 10:24:09;;;;;;;4.77;2.00;;;;;;;15.02;100.00;102151.63;7393915;19;20433;-38
2023/05/20 10:26:43;;;;;;;6.50;2.10;;;;;;;15.05;100.00;102162.16;7400250;19;20452;-38
2023/05/20 10:29:17;;;;;;;9.73;5.30;;;;;;;15.25;100.00;102156.16;7397852;19;20424;-38
2023/05/20 10:31:50;;;;;;;9.63;2.90;;;;;;;15.72;100.00;102171.16;7402987;19;20432;-37
2023/05/20 10:34:21;;;;;;;6.50;3.00;;;;;;;15.73;100.00;102180.75;7395241;19;20730;-39
2023/05/20 10:36:59;;;;;;;5.97;2.20;;;;;;;15.36;100.00;102163.53;7399165;19;20458;-38
2023/05/20 10:39:31;;;;;;;8.07;3.27;;;;;;;15.21;100.00;102158.53;7395237;19;20416;-38
2023/05/20 10:42:11;;;;;;;9.60;2.93;;;;;;;14.75;100.00;102080.28;7400636;19;20421;-39
2023/05/20 10:44:44;;;;;;;9.50;4.40;;;;;;;14.52;100.00;102019.47;7394483;19;20494;-39
2023/05/20 10:47:15;;;;;;;6.10;2.73;;;;;;;14.47;100.00;101985.50;7398286;19;20456;-39
2023/05/20 10:49:54;;;;;;;8.90;2.73;;;;;;;14.50;100.00;101959.66;7397185;19;20437;-38
2023/05/20 10:52:25;;;;;;;5.40;2.30;;;;;;;14.62;100.00;101941.16;7397657;19;20414;-38
2023/05/20 10:54:59;;;;;;;5.10;2.37;;;;;;;14.76;100.00;101946.09;7394836;19;20420;-38
2023/05/20 10:57:32;;;;;;;5.00;2.20;;;;;;;15.14;100.00;101952.03;7398323;19;20868;-38
2023/05/20 11:00:04;;;;;;;6.03;2.10;;;;;;;15.30;100.00;101950.06;7395509;19;20436;-40
2023/05/20 11:02:34;;;;;;;6.70;2.30;;;;;;;15.30;100.00;101991.66;7398966;19;20411;-39
2023/05/20 11:05:06;;;;;;;8.23;2.50;;;;;;;15.43;100.00;101978.34;7393095;19;20435;-37
2023/05/20 11:07:36;;;;;;;7.90;2.67;;;;;;;15.31;100.00;101967.44;7397347;19;20944;-38
2023/05/20 11:10:10;;;;;;;5.00;1.90;;;;;;;15.12;100.00;101964.97;7394077;19;20440;-39
2023/05/20 11:12:42;;;;;;;9.80;2.80;;;;;;;14.79;100.00;101951.41;7398452;19;20410;-38
2023/05/20 11:15:13;;;;;;;4.00;1.90;;;;;;;14.69;100.00;101929.31;7392945;19;20445;-38
2023/05/20 11:17:54;;;;;;;12.90;6.20;;;;;;;14.68;100.00;101927.53;7398747;19;20767;-37
2023/05/20 11:20:24;;;;;;;6.47;2.40;;;;;;;14.66;100.00;101911.00;7393119;19;20435;-40
2023/05/20 11:22:55;;;;;;;13.10;4.67;;;;;;;14.87;100.00;101905.84;7400786;19;20486;-38
2023/05/20 11:25:25;;;;;;;7.30;2.60;;;;;;;14.96;100.00;101914.06;7392571;19;20454;-38
2023/05/20 11:27:57;;;;;;;15.10;5.93;;;;;;;14.94;100.00;101910.50;7401126;19;20452;-38
2023/05/20 11:30:27;;;;;;;6.60;2.50;;;;;;;14.85;100.00;101912.69;7395313;19;20442;-37
2023/05/20 11:33:00;;;;;;;7.67;3.20;;;;;;;14.74;100.00;101906.13;7398425;19;20494;-37
2023/05/20 11:35:32;;;;;;;15.87;8.43;;;;;;;14.83;100.00;101888.38;7391603;19;20435;-38